Aviation Digital Data Service (ADDS)

Output produced by METARs form (1739 UTC 18 January 2018)
found at http://aviationweather.gov/adds/metars/
 
KHUL 181720Z 1818/1918 26004KT P6SM FEW250 
     FM190800 32004KT P6SM SCT020 
     FM191200 VRB03KT P6SM BKN040